Time;durP1;ratioP1;P1;durP2;ratioP2;P2;SDS_P1;SDS_P2;PMS_P1;PMS_P2;Temp;Humidity;BMP_temperature;BMP_pressure;BME280_temperature;BME280_humidity;BME280_pressure;Samples;Min_cycle;Max_cycle;Signal;HPM_P1;HPM_P2
2021/03/20 00:01:19;;;;;;;5.57;4.40;;;;;;;3.57;61.86;101474.19;5016276;28;20053;-74
2021/03/20 00:03:46;;;;;;;6.07;4.82;;;;;;;3.55;61.75;101476.34;5003018;28;20057;-74
2021/03/20 00:06:15;;;;;;;7.15;5.00;;;;;;;3.52;61.68;101479.56;4996291;28;20061;-75
2021/03/20 00:08:43;;;;;;;8.45;5.32;;;;;;;3.48;61.42;101475.63;5008546;28;20062;-75
2021/03/20 00:11:11;;;;;;;6.60;5.15;;;;;;;3.45;61.50;101478.88;5010845;28;20050;-74
2021/03/20 00:13:38;;;;;;;10.50;6.57;;;;;;;3.43;61.35;101472.78;4995142;28;20061;-75
2021/03/20 00:16:05;;;;;;;9.18;5.88;;;;;;;3.37;61.14;101473.75;4995510;28;20503;-75
2021/03/20 00:18:33;;;;;;;7.28;4.78;;;;;;;3.31;61.73;101480.22;4995329;28;20069;-75
2021/03/20 00:21:01;;;;;;;6.93;4.50;;;;;;;3.22;61.29;101477.81;4995704;28;20058;-75
2021/03/20 00:23:28;;;;;;;5.40;4.45;;;;;;;3.16;61.10;101483.47;5014134;28;20065;-75
2021/03/20 00:25:55;;;;;;;6.63;4.80;;;;;;;3.08;60.80;101484.66;4996005;28;20058;-75
2021/03/20 00:28:25;;;;;;;6.90;4.43;;;;;;;3.02;60.88;101486.47;4995207;28;20069;-75
2021/03/20 00:30:56;;;;;;;5.88;4.10;;;;;;;2.95;60.66;101485.72;4995581;28;20054;-74
2021/03/20 00:33:23;;;;;;;6.20;3.88;;;;;;;2.88;61.14;101486.91;4995440;28;20408;-74
2021/03/20 00:35:51;;;;;;;4.28;3.28;;;;;;;2.81;60.84;101485.13;4995479;28;20065;-75
2021/03/20 00:38:19;;;;;;;5.57;4.43;;;;;;;2.73;61.06;101493.75;5003641;28;20270;-74
2021/03/20 00:40:46;;;;;;;6.45;4.15;;;;;;;2.67;61.54;101494.69;5015181;28;20065;-75
2021/03/20 00:43:13;;;;;;;8.82;4.60;;;;;;;2.61;61.36;101501.13;5014744;28;20065;-75
2021/03/20 00:45:40;;;;;;;9.57;5.80;;;;;;;2.53;61.05;101493.22;5014847;28;20072;-75
2021/03/20 00:48:10;;;;;;;7.82;3.92;;;;;;;2.48;61.04;101496.66;5014850;28;20064;-74
2021/03/20 00:50:38;;;;;;;5.13;3.72;;;;;;;2.41;61.48;101494.00;5014728;28;20054;-74
2021/03/20 00:53:06;;;;;;;5.18;3.00;;;;;;;2.34;61.44;101504.28;5004615;28;20062;-74
2021/03/20 00:55:33;;;;;;;4.22;3.00;;;;;;;2.29;60.97;101501.41;4994773;28;20054;-75
2021/03/20 00:58:00;;;;;;;4.43;2.80;;;;;;;2.25;61.24;101508.44;4994821;28;20389;-74
2021/03/20 01:00:28;;;;;;;4.82;3.22;;;;;;;2.22;61.46;101512.47;4994814;28;20058;-74
2021/03/20 01:02:55;;;;;;;4.82;3.25;;;;;;;2.14;62.33;101514.72;4994367;28;20050;-74
2021/03/20 01:05:22;;;;;;;5.22;3.42;;;;;;;2.11;62.42;101513.25;4994897;28;20054;-75
2021/03/20 01:07:49;;;;;;;6.57;3.65;;;;;;;2.06;63.02;101520.53;4995616;28;20518;-74
2021/03/20 01:10:21;;;;;;;4.35;3.30;;;;;;;1.99;63.27;101517.88;4994093;28;20444;-75
2021/03/20 01:12:48;;;;;;;5.38;3.50;;;;;;;1.93;63.48;101514.16;4994784;28;20134;-74
2021/03/20 01:15:17;;;;;;;4.88;3.47;;;;;;;1.86;63.56;101518.03;4994247;28;20058;-74
2021/03/20 01:17:45;;;;;;;5.07;3.17;;;;;;;1.77;63.55;101521.09;4994809;28;20054;-74
2021/03/20 01:20:16;;;;;;;4.13;3.35;;;;;;;1.71;64.86;101522.03;4994580;28;20058;-74
2021/03/20 01:22:43;;;;;;;5.22;3.55;;;;;;;1.68;65.09;101522.50;5007905;28;20053;-74
2021/03/20 01:25:11;;;;;;;5.60;3.28;;;;;;;1.60;64.96;101529.13;4998512;28;20062;-74
2021/03/20 01:27:39;;;;;;;5.18;3.03;;;;;;;1.55;64.06;101519.88;4994400;28;20062;-74
2021/03/20 01:30:10;;;;;;;5.35;3.10;;;;;;;1.56;63.97;101527.06;4994226;28;20058;-74
2021/03/20 01:32:37;;;;;;;6.45;2.97;;;;;;;1.55;63.76;101520.72;4994885;28;20412;-74
2021/03/20 01:35:05;;;;;;;3.72;2.88;;;;;;;1.56;62.59;101536.13;4994339;28;20058;-74
2021/03/20 01:37:32;;;;;;;5.13;3.25;;;;;;;1.52;62.15;101525.84;4994426;28;20054;-74
2021/03/20 01:39:59;;;;;;;4.80;3.05;;;;;;;1.51;61.69;101530.50;4995292;28;20062;-74
2021/03/20 01:42:26;;;;;;;4.30;3.03;;;;;;;1.49;62.27;101521.66;4995072;28;20489;-74
2021/03/20 01:45:17;;;;;;;3.15;2.20;;;;;;;1.48;61.84;101508.97;4994779;28;20062;-74
2021/03/20 01:47:50;;;;;;;6.43;2.80;;;;;;;1.44;61.92;101505.00;4994831;28;20062;-74
2021/03/20 01:50:24;;;;;;;4.13;2.92;;;;;;;1.43;62.13;101503.34;4996658;28;20381;-74
2021/03/20 01:52:55;;;;;;;3.75;2.50;;;;;;;1.40;62.44;101501.03;4999848;28;20046;-74
2021/03/20 01:55:22;;;;;;;4.22;2.60;;;;;;;1.37;62.56;101504.25;4998585;28;20385;-74
2021/03/20 01:57:54;;;;;;;4.53;2.60;;;;;;;1.32;62.63;101517.81;4998498;28;20058;-74
2021/03/20 02:00:28;;;;;;;3.63;2.40;;;;;;;1.24;62.49;101516.22;4998660;28;20061;-74
2021/03/20 02:02:55;;;;;;;3.47;2.30;;;;;;;1.19;62.89;101503.16;4998145;28;20065;-74
2021/03/20 02:05:26;;;;;;;4.93;2.50;;;;;;;1.14;62.60;101510.41;4998142;28;20396;-74
2021/03/20 02:07:54;;;;;;;4.03;2.20;;;;;;;1.09;62.37;101512.97;5001884;28;20407;-74
2021/03/20 02:10:23;;;;;;;5.28;2.85;;;;;;;1.02;63.12;101507.56;5017333;28;20081;-74
2021/03/20 02:12:56;;;;;;;5.15;2.45;;;;;;;1.00;62.81;101515.16;5017897;28;20057;-74
2021/03/20 02:15:28;;;;;;;3.63;2.55;;;;;;;0.94;63.59;101508.66;5017520;28;20058;-74
2021/03/20 02:18:03;;;;;;;4.22;2.70;;;;;;;0.87;63.75;101504.31;5016231;28;20426;-74
2021/03/20 02:21:08;;;;;;;4.53;2.75;;;;;;;0.85;63.59;101506.44;4997797;28;20468;-74
2021/03/20 02:24:25;;;;;;;3.92;2.35;;;;;;;0.79;63.35;101505.44;5014911;28;20076;-74
2021/03/20 02:27:14;;;;;;;4.13;2.30;;;;;;;0.76;63.26;101501.25;4997513;28;20054;-74
2021/03/20 02:30:04;;;;;;;4.50;2.70;;;;;;;0.73;63.21;101500.84;4997765;28;20066;-74
2021/03/20 02:32:48;;;;;;;;;;;;;;;0.69;63.56;101503.19;4997553;28;20062;-75
2021/03/20 02:35:24;;;;;;;3.30;2.20;;;;;;;0.66;63.49;101509.13;4996332;28;19922;-75
2021/03/20 02:38:02;;;;;;;3.55;2.28;;;;;;;0.65;63.78;101512.09;4996263;28;20062;-75
2021/03/20 02:40:36;;;;;;;4.72;2.15;;;;;;;0.65;63.88;101510.19;4996879;28;20519;-75
2021/03/20 02:43:08;;;;;;;5.43;2.80;;;;;;;0.61;63.77;101514.44;5004924;28;20495;-75
2021/03/20 02:45:40;;;;;;;5.47;2.85;;;;;;;0.60;64.05;101515.50;4996766;28;20404;-75
2021/03/20 02:48:16;;;;;;;3.47;2.20;;;;;;;0.60;64.01;101516.31;4996780;28;20057;-75
2021/03/20 02:50:49;;;;;;;5.10;2.20;;;;;;;0.61;63.76;101517.19;4997072;28;20054;-74
2021/03/20 02:53:22;;;;;;;3.63;2.25;;;;;;;0.61;63.49;101525.41;4996817;28;20058;-74
2021/03/20 02:55:54;;;;;;;3.25;2.40;;;;;;;0.59;63.63;101519.31;4996842;28;20058;-74
2021/03/20 02:58:25;;;;;;;3.85;2.50;;;;;;;0.57;63.53;101525.00;4996548;28;20066;-74
2021/03/20 03:00:55;;;;;;;6.57;2.30;;;;;;;0.50;63.95;101529.69;4996441;28;20050;-74
2021/03/20 03:03:28;;;;;;;4.25;2.53;;;;;;;0.49;64.17;101525.28;4996119;28;20059;-75
2021/03/20 03:06:01;;;;;;;3.47;2.40;;;;;;;0.46;64.24;101528.44;4996833;28;20410;-75
2021/03/20 03:08:31;;;;;;;4.68;2.72;;;;;;;0.42;64.26;101523.63;4996075;28;20380;-75
2021/03/20 03:11:06;;;;;;;4.57;2.50;;;;;;;0.36;64.40;101515.25;4997251;28;20058;-75
2021/03/20 03:13:39;;;;;;;4.03;3.08;;;;;;;0.32;64.22;101514.00;5003320;28;20054;-75
2021/03/20 03:16:12;;;;;;;5.88;2.90;;;;;;;0.27;64.79;101519.28;4997155;28;20054;-75
2021/03/20 03:18:44;;;;;;;3.30;2.30;;;;;;;0.23;65.05;101509.81;4996740;28;20058;-75
2021/03/20 03:21:13;;;;;;;3.80;2.50;;;;;;;0.20;64.89;101510.28;4998495;28;20050;-74
2021/03/20 03:23:42;;;;;;;4.63;2.53;;;;;;;0.16;65.00;101515.34;5014322;28;20057;-74
2021/03/20 03:26:15;;;;;;;4.97;2.60;;;;;;;0.17;65.22;101521.69;4997028;28;20054;-75
2021/03/20 03:28:48;;;;;;;4.93;2.60;;;;;;;0.16;65.35;101520.81;4996785;28;20058;-75
2021/03/20 03:31:21;;;;;;;4.95;2.65;;;;;;;0.18;65.59;101520.63;4996312;28;20058;-75
2021/03/20 03:33:57;;;;;;;4.20;2.55;;;;;;;0.19;65.90;101511.34;4998704;28;20157;-74
2021/03/20 03:36:26;;;;;;;5.55;3.20;;;;;;;0.24;65.84;101510.69;4997033;28;20066;-75
2021/03/20 03:38:56;;;;;;;6.45;2.92;;;;;;;0.27;65.55;101512.97;4996278;28;20054;-75
2021/03/20 03:41:27;;;;;;;6.07;2.85;;;;;;;0.27;65.87;101502.84;4996433;28;20508;-75
2021/03/20 03:43:54;;;;;;;5.40;2.95;;;;;;;0.30;65.95;101510.66;4996773;28;20062;-75
2021/03/20 03:46:23;;;;;;;5.53;3.13;;;;;;;0.35;65.41;101509.97;4997023;28;20058;-75
2021/03/20 03:48:53;;;;;;;4.00;2.67;;;;;;;0.43;64.85;101511.63;4996130;28;20062;-75
2021/03/20 03:51:20;;;;;;;5.10;3.08;;;;;;;0.48;64.61;101517.25;4996238;28;20085;-75
2021/03/20 03:53:47;;;;;;;4.15;2.75;;;;;;;0.52;64.52;101522.06;5004669;28;20491;-75
2021/03/20 03:56:28;;;;;;;5.00;2.67;;;;;;;0.60;64.12;101529.19;5016538;28;20062;-75
2021/03/20 03:58:59;;;;;;;;;;;;;;;0.62;64.46;101532.56;5016205;28;20065;-75
2021/03/20 04:01:37;;;;;;;5.07;3.05;;;;;;;0.68;64.01;101533.59;5015560;28;20021;-75
2021/03/20 04:04:20;;;;;;;4.63;3.00;;;;;;;0.70;63.15;101535.03;5014694;28;20050;-74
2021/03/20 04:07:00;;;;;;;4.55;3.08;;;;;;;0.75;63.69;101526.97;5015302;28;20089;-75
2021/03/20 04:09:33;;;;;;;;;;;;;;;0.83;63.94;101525.03;5015083;28;20064;-75
2021/03/20 04:12:06;;;;;;;4.80;2.90;;;;;;;0.85;63.60;101526.47;5014980;28;19925;-75
2021/03/20 04:14:40;;;;;;;7.55;3.22;;;;;;;0.87;63.57;101526.25;5014832;28;20596;-75
2021/03/20 04:17:15;;;;;;;4.72;2.67;;;;;;;0.92;63.46;101529.16;5016734;28;20054;-75
2021/03/20 04:19:55;;;;;;;6.38;3.15;;;;;;;0.90;63.32;101536.78;5014635;28;20164;-75
2021/03/20 04:22:29;;;;;;;7.25;3.15;;;;;;;0.89;63.41;101543.34;5015126;28;20054;-75
2021/03/20 04:25:04;;;;;;;5.07;3.05;;;;;;;0.84;63.32;101541.28;4995330;28;20054;-75
2021/03/20 04:27:34;;;;;;;6.57;3.38;;;;;;;0.85;63.19;101533.88;4995871;28;20073;-75
2021/03/20 04:30:09;;;;;;;7.10;2.85;;;;;;;0.80;63.06;101529.06;4994641;28;20058;-75
2021/03/20 04:32:42;;;;;;;4.90;3.00;;;;;;;0.83;63.00;101525.03;4994353;28;20069;-75
2021/03/20 04:35:17;;;;;;;4.47;3.00;;;;;;;0.85;62.68;101522.91;4995180;28;20058;-75
2021/03/20 04:37:48;;;;;;;4.43;3.25;;;;;;;0.85;62.66;101522.91;4994901;28;20362;-75
2021/03/20 04:40:27;;;;;;;4.68;2.72;;;;;;;0.87;62.39;101521.59;4997956;28;20054;-75
2021/03/20 04:42:55;;;;;;;4.35;3.10;;;;;;;0.83;62.33;101514.06;4994632;28;20069;-75
2021/03/20 04:45:32;;;;;;;5.95;3.58;;;;;;;0.87;62.44;101523.53;4994605;28;20058;-74
2021/03/20 04:48:07;;;;;;;5.30;3.38;;;;;;;0.89;62.17;101530.44;4994684;28;20061;-75
2021/03/20 04:50:37;;;;;;;4.70;3.08;;;;;;;0.87;63.05;101527.09;4994944;28;20066;-75
2021/03/20 04:53:04;;;;;;;7.45;3.38;;;;;;;0.89;63.29;101526.88;4995122;28;20461;-75
2021/03/20 04:55:31;;;;;;;4.38;3.08;;;;;;;0.90;63.13;101523.88;5000193;28;20424;-75
2021/03/20 04:58:04;;;;;;;6.60;3.50;;;;;;;0.91;63.29;101533.81;5014917;28;20053;-75
2021/03/20 05:00:36;;;;;;;4.20;2.70;;;;;;;0.93;63.71;101526.19;5017763;28;20065;-74
2021/03/20 05:03:12;;;;;;;4.80;3.03;;;;;;;1.00;63.66;101526.13;5014516;28;20053;-74
2021/03/20 05:05:46;;;;;;;4.30;2.60;;;;;;;1.04;63.01;101521.88;5013934;28;20077;-74
2021/03/20 05:08:18;;;;;;;3.92;2.92;;;;;;;1.05;63.12;101537.28;5014283;28;20061;-74
2021/03/20 05:10:50;;;;;;;5.47;3.40;;;;;;;1.01;63.52;101533.31;5003972;28;20058;-74
2021/03/20 05:13:28;;;;;;;5.28;3.30;;;;;;;1.03;63.55;101544.91;4994472;28;20058;-74
2021/03/20 05:16:00;;;;;;;6.05;3.28;;;;;;;1.08;62.90;101544.22;4994803;28;20058;-74
2021/03/20 05:18:27;;;;;;;4.25;2.58;;;;;;;1.10;62.94;101551.16;4994442;28;20081;-75
2021/03/20 05:20:55;;;;;;;4.32;2.83;;;;;;;1.12;62.72;101556.44;4993905;28;20514;-75
2021/03/20 05:23:21;;;;;;;5.25;2.80;;;;;;;1.15;62.54;101564.19;4994892;28;20061;-74
2021/03/20 05:25:48;;;;;;;5.43;3.00;;;;;;;1.13;62.73;101556.19;4993637;28;20050;-74
2021/03/20 05:28:15;;;;;;;4.03;2.30;;;;;;;1.18;62.19;101550.88;4994243;28;20440;-75
2021/03/20 05:30:42;;;;;;;4.60;2.63;;;;;;;1.18;61.34;101550.88;4994445;28;20066;-75
2021/03/20 05:33:12;;;;;;;5.82;2.80;;;;;;;1.14;61.62;101548.81;4994441;28;20058;-75
2021/03/20 05:35:38;;;;;;;;;;;;;;;1.06;61.76;101549.94;4994102;28;20065;-74
2021/03/20 05:38:06;;;;;;;5.15;2.53;;;;;;;0.95;62.32;101567.13;4994620;28;19933;-75
2021/03/20 05:40:34;;;;;;;5.35;2.83;;;;;;;0.92;62.30;101567.56;5012988;28;20058;-75
2021/03/20 05:43:33;;;;;;;6.50;3.47;;;;;;;0.89;62.96;101573.50;5013525;28;20153;-75
2021/03/20 05:46:14;;;;;;;5.85;3.08;;;;;;;0.89;64.84;101562.53;5013453;28;20052;-75
2021/03/20 05:48:50;;;;;;;4.60;3.00;;;;;;;0.83;64.36;101567.00;5013373;28;20058;-75
2021/03/20 05:51:33;;;;;;;4.70;2.90;;;;;;;0.98;63.27;101573.00;5014054;28;20065;-75
2021/03/20 05:54:33;;;;;;;5.70;2.67;;;;;;;1.10;62.45;101569.53;5012746;28;20061;-75
2021/03/20 05:57:10;;;;;;;5.30;2.92;;;;;;;1.16;62.14;101571.38;4993258;28;20065;-75
2021/03/20 05:59:51;;;;;;;4.72;2.63;;;;;;;1.21;61.75;101571.53;5013689;28;20057;-75
2021/03/20 06:02:44;;;;;;;4.43;3.00;;;;;;;1.18;61.92;101563.78;5013590;28;20070;-75
2021/03/20 06:05:30;;;;;;;4.70;2.67;;;;;;;1.24;61.86;101567.50;5013192;28;20061;-75
2021/03/20 06:08:15;;;;;;;4.88;2.65;;;;;;;1.30;61.52;101572.94;5009406;28;20050;-75
2021/03/20 06:10:54;;;;;;;5.10;2.90;;;;;;;1.35;61.67;101567.59;4994459;28;20058;-75
2021/03/20 06:13:47;;;;;;;3.83;2.80;;;;;;;1.35;61.20;101575.00;4998256;28;20065;-75
2021/03/20 06:16:25;;;;;;;6.50;3.20;;;;;;;1.44;61.40;101575.56;4993818;28;20054;-75
2021/03/20 06:19:36;;;;;;;4.25;2.85;;;;;;;1.55;60.99;101572.88;4993669;28;20065;-75
2021/03/20 06:22:29;;;;;;;6.13;3.42;;;;;;;1.58;60.37;101568.88;5002434;28;20069;-75
2021/03/20 06:25:22;;;;;;;6.65;3.25;;;;;;;1.59;60.69;101573.28;5008443;28;20061;-75
2021/03/20 06:27:53;;;;;;;5.30;3.40;;;;;;;1.66;60.63;101571.31;5013582;28;20065;-75
2021/03/20 06:30:33;;;;;;;5.45;3.40;;;;;;;1.78;59.93;101565.88;5013309;28;20062;-76
2021/03/20 06:33:05;;;;;;;4.78;3.35;;;;;;;1.99;59.23;101570.06;5013376;28;20062;-75
2021/03/20 06:35:38;;;;;;;5.00;3.25;;;;;;;2.30;58.28;101573.72;5013574;28;20054;-75
2021/03/20 06:38:06;;;;;;;6.05;2.78;;;;;;;2.81;56.80;101577.81;5016800;28;20480;-76
2021/03/20 06:40:47;;;;;;;6.80;3.30;;;;;;;3.44;54.36;101579.97;5016663;28;20484;-74
2021/03/20 06:43:18;;;;;;;5.15;3.60;;;;;;;4.18;52.69;101584.03;5016398;28;20506;-75
2021/03/20 06:45:45;;;;;;;5.60;3.55;;;;;;;4.46;51.52;101586.81;5016442;28;20073;-74
2021/03/20 06:48:14;;;;;;;4.70;3.20;;;;;;;4.19;51.95;101582.94;5016568;28;20061;-75
2021/03/20 06:50:44;;;;;;;8.13;4.27;;;;;;;4.21;51.79;101586.31;5016642;28;20060;-74
2021/03/20 06:53:17;;;;;;;5.72;4.40;;;;;;;4.67;50.57;101581.69;5012855;28;20473;-74
2021/03/20 06:55:45;;;;;;;7.68;3.78;;;;;;;5.08;49.27;101572.19;5010902;28;20471;-75
2021/03/20 06:58:18;;;;;;;6.82;4.05;;;;;;;5.77;47.64;101582.06;5016189;28;20068;-75
2021/03/20 07:00:46;;;;;;;6.00;4.43;;;;;;;6.73;45.66;101578.00;5016098;28;20391;-75
2021/03/20 07:03:48;;;;;;;5.03;3.17;;;;;;;7.79;42.65;101581.91;5016131;28;20081;-75
2021/03/20 07:06:26;;;;;;;5.68;3.00;;;;;;;8.48;40.76;101586.44;5017406;28;20082;-75
2021/03/20 07:08:54;;;;;;;5.50;2.90;;;;;;;8.99;39.99;101579.28;5017097;28;20065;-75
2021/03/20 07:11:27;;;;;;;3.45;2.72;;;;;;;9.54;39.11;101583.16;5017580;28;20076;-75
2021/03/20 07:13:58;;;;;;;5.07;3.10;;;;;;;9.82;38.43;101580.88;5017152;28;20058;-75
2021/03/20 07:16:28;;;;;;;5.82;5.10;;;;;;;10.22;37.69;101584.66;5017625;28;20058;-75
2021/03/20 07:18:58;;;;;;;4.35;3.30;;;;;;;10.67;35.78;101585.59;5017142;28;20065;-76
2021/03/20 07:21:30;;;;;;;6.18;3.53;;;;;;;10.99;35.64;101582.31;5016934;28;20080;-75
2021/03/20 07:24:04;;;;;;;4.13;3.20;;;;;;;11.49;34.68;101577.41;5022839;28;20069;-75
2021/03/20 07:26:34;;;;;;;5.35;2.80;;;;;;;11.78;33.54;101580.19;5020963;28;20053;-75
2021/03/20 07:29:03;;;;;;;4.15;3.03;;;;;;;12.15;32.67;101595.44;5015846;28;20515;-75
2021/03/20 07:31:30;;;;;;;4.00;2.63;;;;;;;12.51;32.17;101597.78;5016452;28;20065;-75
2021/03/20 07:34:14;;;;;;;4.90;2.63;;;;;;;12.14;31.26;101601.34;5015649;28;20538;-75
2021/03/20 07:36:41;;;;;;;6.38;3.80;;;;;;;11.98;32.41;101603.47;5015609;28;20054;-75
2021/03/20 07:39:24;;;;;;;4.28;3.00;;;;;;;12.39;31.62;101609.41;5015184;28;20065;-75
2021/03/20 07:41:57;;;;;;;3.25;2.63;;;;;;;12.81;31.02;101612.50;5008279;28;20070;-75
2021/03/20 07:44:27;;;;;;;6.13;3.00;;;;;;;13.72;29.43;101605.72;4996560;28;20058;-75
2021/03/20 07:46:56;;;;;;;4.82;2.92;;;;;;;14.04;28.59;101610.44;4995455;28;20061;-76
2021/03/20 07:49:29;;;;;;;4.80;3.03;;;;;;;14.62;27.47;101623.00;4997020;28;20065;-76
2021/03/20 07:51:59;;;;;;;4.65;2.90;;;;;;;15.11;26.56;101615.72;5008428;28;20060;-75
2021/03/20 07:54:31;;;;;;;4.00;2.80;;;;;;;15.59;25.81;101622.69;5007413;28;20054;-76
2021/03/20 07:57:09;;;;;;;4.38;2.88;;;;;;;15.45;26.02;101631.16;4998051;28;20500;-75
2021/03/20 07:59:44;;;;;;;4.22;2.80;;;;;;;15.62;26.02;101622.03;4996829;28;20062;-76
2021/03/20 08:02:26;;;;;;;3.58;2.80;;;;;;;16.12;25.33;101626.63;4996173;28;20501;-75
2021/03/20 08:04:56;;;;;;;4.55;2.90;;;;;;;16.68;24.44;101636.25;4995899;28;20061;-76
2021/03/20 08:07:40;;;;;;;5.25;2.88;;;;;;;17.25;23.73;101629.72;5000038;28;20060;-76
2021/03/20 08:10:24;;;;;;;3.55;2.50;;;;;;;17.59;22.80;101630.84;5004591;28;20397;-76
2021/03/20 08:12:53;;;;;;;4.13;2.50;;;;;;;17.78;22.50;101636.09;5011004;28;20058;-76
2021/03/20 08:15:23;;;;;;;;;;;;;;;17.75;22.48;101636.78;4997946;28;20058;-76
2021/03/20 08:17:50;;;;;;;5.30;3.20;;;;;;;18.96;21.89;101634.59;4997788;28;20368;-76
2021/03/20 08:20:18;;;;;;;5.55;2.63;;;;;;;19.70;20.50;101637.78;5002106;28;20050;-76
2021/03/20 08:23:06;;;;;;;3.83;2.78;;;;;;;20.88;18.90;101627.69;5012965;28;20145;-76
2021/03/20 08:25:47;;;;;;;5.70;2.97;;;;;;;21.69;18.49;101639.00;5009248;28;20065;-76
2021/03/20 08:28:32;;;;;;;3.45;2.90;;;;;;;23.22;16.55;101626.19;5009753;28;20054;-77
2021/03/20 08:31:07;;;;;;;3.08;2.63;;;;;;;24.12;15.68;101631.66;5009514;28;20400;-75
2021/03/20 08:33:47;;;;;;;3.67;2.97;;;;;;;24.62;15.13;101626.81;5011176;28;20533;-74
2021/03/20 08:36:25;;;;;;;4.05;3.20;;;;;;;24.92;14.75;101635.44;5010249;28;20464;-75
2021/03/20 08:39:04;;;;;;;5.05;2.80;;;;;;;25.16;14.09;101632.47;4998426;28;20061;-74
2021/03/20 08:41:45;;;;;;;3.03;2.63;;;;;;;23.98;14.64;101628.53;4995482;28;20485;-74
2021/03/20 08:44:40;;;;;;;5.25;3.33;;;;;;;23.74;14.14;101627.66;5009508;28;20411;-74
2021/03/20 08:47:32;;;;;;;6.15;2.90;;;;;;;25.84;12.22;101628.44;5011971;28;20053;-74
2021/03/20 08:50:09;;;;;;;4.80;2.58;;;;;;;27.03;12.15;101635.19;5010426;28;20073;-74
2021/03/20 08:52:43;;;;;;;3.85;2.60;;;;;;;28.06;11.00;101613.91;5013043;28;20069;-75
2021/03/20 08:55:43;;;;;;;3.13;2.50;;;;;;;28.61;10.32;101618.41;5011587;28;20416;-74
2021/03/20 08:58:26;;;;;;;3.78;2.60;;;;;;;28.91;10.49;101620.81;5011580;28;20054;-74
2021/03/20 09:00:56;;;;;;;2.85;2.30;;;;;;;29.92;9.76;101622.03;5010788;28;20064;-75
2021/03/20 09:03:31;;;;;;;3.90;2.33;;;;;;;30.49;8.95;101625.69;5012878;28;20419;-74
2021/03/20 09:06:02;;;;;;;2.55;2.30;;;;;;;30.95;8.46;101624.44;5012597;28;20480;-74
2021/03/20 09:08:31;;;;;;;3.00;2.28;;;;;;;31.15;8.68;101622.56;5013298;28;20061;-74
2021/03/20 09:11:02;;;;;;;3.42;2.20;;;;;;;31.73;7.51;101621.81;5015040;28;20065;-75
2021/03/20 09:13:35;;;;;;;2.65;2.10;;;;;;;31.74;7.69;101618.53;5010549;28;20167;-74
2021/03/20 09:16:08;;;;;;;3.60;2.30;;;;;;;32.44;7.64;101607.53;5009828;28;20064;-74
2021/03/20 09:18:40;;;;;;;2.53;1.80;;;;;;;32.54;6.97;101618.91;5012670;28;20546;-74
2021/03/20 09:21:10;;;;;;;2.55;1.80;;;;;;;32.69;6.67;101612.88;5012719;28;20062;-74
2021/03/20 09:23:43;;;;;;;3.90;2.10;;;;;;;32.96;6.33;101615.66;5008406;28;20054;-74
2021/03/20 09:26:12;;;;;;;3.13;2.40;;;;;;;33.15;6.92;101611.19;5013467;28;20054;-77
2021/03/20 09:29:05;;;;;;;3.70;2.10;;;;;;;33.59;6.66;101611.06;5005573;28;20065;-77
2021/03/20 09:31:55;;;;;;;4.32;1.90;;;;;;;33.88;5.70;101612.06;5005678;28;20458;-77
2021/03/20 09:34:32;;;;;;;3.13;1.90;;;;;;;34.12;5.75;101594.53;5010412;28;20054;-77
2021/03/20 09:37:01;;;;;;;2.65;1.90;;;;;;;34.06;5.76;101605.84;5012273;28;20050;-77
2021/03/20 09:39:40;;;;;;;2.60;1.70;;;;;;;32.77;6.58;101602.84;5011801;28;20053;-76
2021/03/20 09:42:30;;;;;;;3.35;1.85;;;;;;;32.45;6.28;101586.13;5010551;28;20058;-74
2021/03/20 09:45:00;;;;;;;3.20;1.80;;;;;;;31.50;6.58;101594.59;4993389;28;20058;-74
2021/03/20 09:47:46;;;;;;;2.22;1.48;;;;;;;32.49;5.96;101586.88;5011475;28;20057;-75
2021/03/20 09:50:34;;;;;;;3.97;2.17;;;;;;;33.12;6.34;101589.00;5009553;28;20062;-74
2021/03/20 09:53:35;;;;;;;3.55;2.03;;;;;;;32.95;6.71;101588.88;5011018;28;20499;-74
2021/03/20 09:56:27;;;;;;;2.97;2.20;;;;;;;32.71;5.88;101593.06;5009282;28;20057;-74
2021/03/20 09:58:55;;;;;;;3.35;2.17;;;;;;;33.12;5.64;101591.88;5012599;28;20511;-74
2021/03/20 10:01:42;;;;;;;3.42;1.70;;;;;;;33.82;5.05;101584.94;5011951;28;20395;-78
2021/03/20 10:04:39;;;;;;;2.80;1.55;;;;;;;32.72;5.53;101578.22;5002287;28;20058;-75
2021/03/20 10:07:26;;;;;;;2.85;1.67;;;;;;;32.30;5.19;101574.84;5008847;28;20061;-75
2021/03/20 10:09:56;;;;;;;2.67;1.90;;;;;;;30.39;6.02;101578.59;5013592;28;20061;-75
2021/03/20 10:12:29;;;;;;;3.60;1.48;;;;;;;28.93;7.18;101584.72;5016544;28;20054;-75
2021/03/20 10:15:21;;;;;;;2.57;1.67;;;;;;;27.50;8.32;101588.38;5008889;28;20397;-76
2021/03/20 10:18:24;;;;;;;2.33;1.55;;;;;;;26.84;8.65;101593.41;5013128;28;20097;-75
2021/03/20 10:21:00;;;;;;;4.95;2.22;;;;;;;26.16;8.74;101585.13;4975072;28;20061;-75
2021/03/20 10:23:40;;;;;;;3.97;3.40;;;;;;;26.21;8.39;101573.34;5009277;28;20045;-74
2021/03/20 10:26:17;;;;;;;2.22;1.58;;;;;;;25.99;9.02;101574.38;5015057;28;20061;-75
2021/03/20 10:28:48;;;;;;;3.13;1.70;;;;;;;25.55;9.46;101575.13;4997692;28;20054;-75
2021/03/20 10:31:17;;;;;;;3.08;1.95;;;;;;;25.37;9.41;101572.09;4999612;28;20058;-75
2021/03/20 10:33:46;;;;;;;7.13;4.28;;;;;;;25.15;9.04;101568.91;5001605;28;20058;-76
2021/03/20 10:36:29;;;;;;;4.03;2.55;;;;;;;24.86;9.12;101570.56;5017084;28;20050;-75
2021/03/20 10:38:57;;;;;;;3.85;2.97;;;;;;;24.48;9.61;101575.28;5009798;28;20058;-75
2021/03/20 10:41:29;;;;;;;3.50;1.90;;;;;;;23.62;10.15;101574.63;5009566;28;20057;-76
2021/03/20 10:44:00;;;;;;;3.80;1.80;;;;;;;23.23;10.40;101568.16;5011866;28;20058;-74
2021/03/20 10:46:30;;;;;;;2.70;1.58;;;;;;;22.53;10.62;101569.81;5013283;28;20056;-76
2021/03/20 10:48:58;;;;;;;;;;;;;;;21.56;12.63;101584.38;5015551;28;20065;-77
2021/03/20 10:51:27;;;;;;;4.15;2.20;;;;;;;21.32;11.89;101573.97;5006561;28;19921;-75
2021/03/20 10:53:57;;;;;;;;;;;;;;;20.91;12.49;101575.97;5016795;28;20053;-75
2021/03/20 10:56:27;;;;;;;;;;;;;;;20.81;12.52;101570.81;5008233;28;20240;-75
2021/03/20 10:58:53;;;;;;;3.17;1.55;;;;;;;20.58;12.94;101574.19;4999772;28;19929;-75
2021/03/20 11:01:31;;;;;;;4.82;2.55;;;;;;;19.78;13.72;101572.72;5012896;28;20058;-75
2021/03/20 11:03:58;;;;;;;3.70;1.80;;;;;;;19.58;13.03;101565.09;5014704;28;20118;-75
2021/03/20 11:06:26;;;;;;;3.53;1.80;;;;;;;19.38;14.36;101573.28;5013693;28;20054;-76
2021/03/20 11:09:07;;;;;;;3.15;1.65;;;;;;;19.68;14.07;101570.31;5014679;28;20054;-75
2021/03/20 11:11:37;;;;;;;2.35;1.63;;;;;;;20.13;13.64;101568.63;5012042;28;20452;-75
2021/03/20 11:14:07;;;;;;;3.45;2.10;;;;;;;20.43;12.94;101566.38;5014716;28;20057;-75
2021/03/20 11:16:43;;;;;;;3.70;1.90;;;;;;;20.59;13.20;101561.66;5013540;28;20061;-76
2021/03/20 11:19:23;;;;;;;2.53;2.30;;;;;;;20.78;12.81;101565.88;5005022;28;20491;-75
2021/03/20 11:21:54;;;;;;;4.88;2.00;;;;;;;21.05;13.41;101559.41;5010808;28;20054;-75
2021/03/20 11:24:24;;;;;;;2.70;1.67;;;;;;;21.79;13.00;101569.59;5007428;28;20050;-75
2021/03/20 11:26:53;;;;;;;3.33;2.03;;;;;;;22.78;11.28;101558.22;4997616;28;20407;-75
2021/03/20 11:29:23;;;;;;;3.30;1.70;;;;;;;23.34;10.85;101557.81;4996031;28;20066;-74
2021/03/20 11:31:57;;;;;;;3.42;1.92;;;;;;;23.94;10.04;101559.34;4996332;28;20059;-74
2021/03/20 11:34:29;;;;;;;2.75;1.60;;;;;;;24.63;9.97;101551.56;4997016;28;20066;-74
2021/03/20 11:37:00;;;;;;;3.80;2.38;;;;;;;24.96;9.26;101551.97;4997472;28;20055;-73
2021/03/20 11:39:27;;;;;;;2.45;1.83;;;;;;;25.80;8.49;101544.78;4998634;28;20488;-74
2021/03/20 11:42:03;;;;;;;2.65;2.33;;;;;;;27.37;7.14;101535.63;4996915;28;20184;-74
2021/03/20 11:44:35;;;;;;;4.38;2.05;;;;;;;28.57;7.25;101538.16;4995429;28;20061;-74
2021/03/20 11:47:05;;;;;;;2.63;2.10;;;;;;;28.58;6.35;101525.47;4996485;28;20057;-74
2021/03/20 11:49:43;;;;;;;2.42;1.98;;;;;;;29.55;6.47;101527.91;4996082;28;20511;-74
2021/03/20 11:52:15;;;;;;;3.88;2.10;;;;;;;29.74;6.13;101523.69;4997056;28;20065;-74
2021/03/20 11:54:43;;;;;;;3.28;2.35;;;;;;;31.02;5.44;101526.53;4995804;28;20061;-73
2021/03/20 11:57:28;;;;;;;2.45;2.25;;;;;;;32.31;4.46;101524.53;4995015;28;20073;-74
2021/03/20 11:59:55;;;;;;;2.72;2.35;;;;;;;31.72;5.09;101516.50;4995900;28;20519;-74
2021/03/20 12:02:40;;;;;;;3.38;1.85;;;;;;;31.93;5.27;101516.13;4994608;28;20161;-74
2021/03/20 12:05:23;;;;;;;3.65;1.85;;;;;;;30.86;5.59;101514.78;4995202;28;20389;-74
2021/03/20 12:07:51;;;;;;;2.58;1.98;;;;;;;31.29;5.27;101506.44;5004457;28;20058;-74